Time;durP1;ratioP1;P1;durP2;ratioP2;P2;SDS_P1;SDS_P2;PMS_P1;PMS_P2;Temp;Humidity;BMP_temperature;BMP_pressure;BME280_temperature;BME280_humidity;BME280_pressure;Samples;Min_cycle;Max_cycle;Signal;HPM_P1;HPM_P2
2023/05/17 00:00:18;;;;;;;7.95;3.58;;;8.00;99.90;;;;;;5072774;28;20693;-59
2023/05/17 00:02:46;;;;;;;4.97;2.78;;;8.00;99.90;;;;;;5073170;28;20232;-58
2023/05/17 00:05:13;;;;;;;6.35;2.65;;;8.00;99.90;;;;;;5073587;28;20201;-58
2023/05/17 00:07:40;;;;;;;3.50;2.83;;;8.00;99.90;;;;;;5073253;28;20203;-59
2023/05/17 00:10:07;;;;;;;6.78;3.25;;;8.00;99.90;;;;;;5073162;28;20201;-59
2023/05/17 00:12:34;;;;;;;5.10;2.90;;;8.10;99.90;;;;;;5072536;28;20738;-58
2023/05/17 00:15:01;;;;;;;6.28;2.92;;;8.10;99.90;;;;;;5072845;28;20689;-59
2023/05/17 00:17:28;;;;;;;4.25;2.83;;;8.20;99.90;;;;;;5072780;28;20231;-58
2023/05/17 00:19:56;;;;;;;7.70;2.88;;;8.20;99.90;;;;;;5073100;28;20212;-58
2023/05/17 00:22:23;;;;;;;5.25;2.47;;;8.30;99.90;;;;;;5072451;28;20225;-58
2023/05/17 00:24:50;;;;;;;4.55;2.80;;;8.30;99.90;;;;;;5072440;28;20573;-59
2023/05/17 00:27:16;;;;;;;6.00;2.80;;;8.30;99.90;;;;;;5074696;28;20208;-58
2023/05/17 00:29:43;;;;;;;6.97;3.20;;;8.30;99.90;;;;;;5076956;28;20204;-58
2023/05/17 00:32:10;;;;;;;4.80;2.78;;;8.30;99.90;;;;;;5076938;28;20223;-59
2023/05/17 00:34:37;;;;;;;4.60;2.40;;;8.20;99.90;;;;;;5076495;28;20208;-58
2023/05/17 00:37:05;;;;;;;4.45;2.45;;;8.20;99.90;;;;;;5076962;28;20221;-56
2023/05/17 00:39:32;;;;;;;10.73;2.95;;;8.20;99.90;;;;;;5076671;28;20201;-59
2023/05/17 00:41:59;;;;;;;7.72;3.03;;;8.20;99.90;;;;;;5076654;28;20212;-58
2023/05/17 00:44:26;;;;;;;6.47;3.20;;;8.20;99.90;;;;;;5076844;28;20211;-58
2023/05/17 00:46:53;;;;;;;4.55;2.45;;;8.10;99.90;;;;;;5076289;28;20250;-58
2023/05/17 00:49:20;;;;;;;8.32;3.72;;;8.10;99.90;;;;;;5076473;28;20575;-59
2023/05/17 00:51:46;;;;;;;12.45;3.30;;;8.10;99.90;;;;;;5076452;28;20208;-59
2023/05/17 00:54:15;;;;;;;7.60;3.10;;;8.00;99.90;;;;;;5076299;28;20212;-58
2023/05/17 00:56:42;;;;;;;10.55;3.15;;;8.00;99.90;;;;;;5076186;28;20698;-59
2023/05/17 00:59:10;;;;;;;8.32;3.70;;;8.00;99.90;;;;;;5076156;28;20209;-59
2023/05/17 01:01:41;;;;;;;6.13;3.28;;;7.90;99.90;;;;;;5076032;28;20685;-58
2023/05/17 01:04:08;;;;;;;4.53;2.70;;;7.90;99.90;;;;;;5076180;28;20232;-58
2023/05/17 01:06:36;;;;;;;3.92;2.60;;;7.90;99.90;;;;;;5076106;28;20201;-59
2023/05/17 01:09:03;;;;;;;9.23;3.28;;;7.90;99.90;;;;;;5075876;28;20666;-59
2023/05/17 01:11:37;;;;;;;5.95;2.90;;;7.80;99.90;;;;;;5076127;28;20228;-58
2023/05/17 01:14:16;;;;;;;5.57;3.60;;;7.80;99.90;;;;;;5075897;28;20232;-58
2023/05/17 01:16:48;;;;;;;6.15;3.70;;;7.70;99.90;;;;;;5075955;28;20213;-58
2023/05/17 01:19:23;;;;;;;7.80;3.33;;;7.70;99.90;;;;;;5075959;28;20185;-58
2023/05/17 01:22:01;;;;;;;7.45;3.05;;;7.70;99.90;;;;;;5075786;28;20199;-59
2023/05/17 01:24:34;;;;;;;4.90;3.00;;;7.70;99.90;;;;;;5075556;28;20196;-59
2023/05/17 01:27:05;;;;;;;8.13;3.63;;;7.70;99.90;;;;;;5075568;28;20181;-58
2023/05/17 01:29:35;;;;;;;4.50;2.75;;;7.60;99.90;;;;;;5075544;28;20228;-58
2023/05/17 01:32:04;;;;;;;8.68;3.15;;;7.60;99.90;;;;;;5075587;28;20204;-59
2023/05/17 01:34:31;;;;;;;5.30;3.08;;;7.60;99.90;;;;;;5075464;28;20235;-58
2023/05/17 01:36:58;;;;;;;8.32;3.83;;;7.60;99.90;;;;;;5075276;28;20217;-58
2023/05/17 01:39:26;;;;;;;6.32;3.42;;;7.50;99.90;;;;;;5074823;28;20667;-58
2023/05/17 01:42:01;;;;;;;6.05;3.50;;;7.50;99.90;;;;;;5075941;28;20228;-59
2023/05/17 01:44:37;;;;;;;8.43;3.47;;;7.50;99.90;;;;;;5076123;28;20242;-58
2023/05/17 01:47:12;;;;;;;9.10;3.85;;;7.50;99.90;;;;;;5075602;28;20192;-58
2023/05/17 01:49:41;;;;;;;16.65;4.50;;;7.50;99.90;;;;;;5075352;28;20184;-59
2023/05/17 01:52:13;;;;;;;11.15;4.00;;;7.50;99.90;;;;;;5075449;28;20580;-58
2023/05/17 01:54:47;;;;;;;9.20;4.20;;;7.50;99.90;;;;;;5074910;28;20708;-58
2023/05/17 01:57:15;;;;;;;14.55;3.47;;;7.50;99.90;;;;;;5076234;28;20232;-59
2023/05/17 01:59:45;;;;;;;5.30;2.97;;;7.50;99.90;;;;;;5076024;28;20213;-58
2023/05/17 02:02:12;;;;;;;13.27;3.60;;;7.60;99.90;;;;;;5075587;28;20251;-58
2023/05/17 02:04:39;;;;;;;11.73;4.22;;;7.60;99.90;;;;;;5075520;28;20292;-58
2023/05/17 02:07:06;;;;;;;7.88;4.45;;;7.60;99.90;;;;;;5075482;28;20197;-58
2023/05/17 02:09:33;;;;;;;12.50;4.20;;;7.70;99.90;;;;;;5074837;28;20582;-58
2023/05/17 02:11:59;;;;;;;12.15;3.55;;;7.80;99.90;;;;;;5075144;28;20221;-59
2023/05/17 02:14:26;;;;;;;4.93;4.00;;;7.80;99.90;;;;;;5074831;28;20689;-59
2023/05/17 02:16:54;;;;;;;6.30;3.88;;;7.90;99.90;;;;;;5074689;28;20213;-59
2023/05/17 02:19:21;;;;;;;8.48;3.58;;;7.90;99.90;;;;;;5075188;28;20205;-58
2023/05/17 02:21:48;;;;;;;5.47;3.75;;;8.00;99.90;;;;;;5074978;28;20635;-58
2023/05/17 02:24:14;;;;;;;6.47;3.80;;;8.00;99.90;;;;;;5074986;28;20293;-59
2023/05/17 02:26:42;;;;;;;10.02;3.97;;;8.00;99.90;;;;;;5074946;28;20681;-59
2023/05/17 02:29:09;;;;;;;7.63;3.55;;;8.10;99.90;;;;;;5075389;28;20209;-58
2023/05/17 02:31:36;;;;;;;8.60;3.80;;;8.10;99.90;;;;;;5075083;28;20209;-58
2023/05/17 02:34:04;;;;;;;11.07;3.45;;;8.10;99.90;;;;;;5074840;28;20224;-58
2023/05/17 02:36:31;;;;;;;9.38;4.22;;;8.20;99.90;;;;;;5074593;28;20213;-58
2023/05/17 02:38:58;;;;;;;6.88;3.90;;;8.20;99.90;;;;;;5074994;28;20205;-60
2023/05/17 02:41:24;;;;;;;9.38;3.75;;;8.20;99.90;;;;;;5074320;28;20207;-59
2023/05/17 02:43:51;;;;;;;7.70;3.83;;;8.20;99.90;;;;;;5074198;28;20255;-59
2023/05/17 02:46:18;;;;;;;9.00;3.60;;;8.20;99.90;;;;;;5074337;28;20201;-58
2023/05/17 02:48:45;;;;;;;8.07;4.00;;;8.10;99.90;;;;;;5074320;28;20201;-59
2023/05/17 02:51:13;;;;;;;8.65;4.15;;;8.10;99.90;;;;;;5073713;28;20197;-58
2023/05/17 02:53:39;;;;;;;7.10;3.90;;;8.00;99.90;;;;;;5073847;28;20236;-58
2023/05/17 02:56:07;;;;;;;10.32;4.10;;;8.00;99.90;;;;;;5074398;28;20208;-58
2023/05/17 02:58:34;;;;;;;11.15;4.60;;;7.90;99.90;;;;;;5074246;28;20228;-57
2023/05/17 03:01:01;;;;;;;6.43;4.60;;;7.80;99.90;;;;;;5074232;28;20251;-58
2023/05/17 03:03:27;;;;;;;12.30;4.50;;;7.80;99.90;;;;;;5074095;28;20221;-58
2023/05/17 03:05:54;;;;;;;7.63;4.18;;;7.70;99.90;;;;;;5073952;28;20201;-57
2023/05/17 03:08:22;;;;;;;11.38;4.70;;;7.70;99.90;;;;;;5074052;28;20193;-59
2023/05/17 03:10:50;;;;;;;11.25;4.32;;;7.70;99.90;;;;;;5074034;28;20591;-58
2023/05/17 03:13:17;;;;;;;11.27;5.05;;;7.60;99.90;;;;;;5073943;28;20311;-57
2023/05/17 03:15:43;;;;;;;10.23;5.03;;;7.60;99.90;;;;;;5074106;28;20198;-59
2023/05/17 03:18:10;;;;;;;11.10;4.40;;;7.50;99.90;;;;;;5074309;28;20239;-58
2023/05/17 03:20:37;;;;;;;12.15;4.82;;;7.50;99.90;;;;;;5073891;28;20555;-59
2023/05/17 03:23:03;;;;;;;11.48;5.78;;;7.50;99.90;;;;;;5073092;28;20601;-58
2023/05/17 03:25:32;;;;;;;13.60;5.68;;;7.50;99.90;;;;;;5073423;28;20212;-58
2023/05/17 03:27:58;;;;;;;12.82;5.60;;;7.50;99.90;;;;;;5073578;28;20208;-58
2023/05/17 03:30:25;;;;;;;9.70;5.03;;;7.50;99.90;;;;;;5075985;28;20201;-58
2023/05/17 03:32:53;;;;;;;8.65;4.82;;;7.50;99.90;;;;;;5077183;28;20221;-58
2023/05/17 03:35:20;;;;;;;14.65;4.97;;;7.50;99.90;;;;;;5077888;28;20205;-58
2023/05/17 03:37:46;;;;;;;10.20;5.38;;;7.50;99.90;;;;;;5075266;28;20216;-57
2023/05/17 03:40:13;;;;;;;15.55;5.13;;;7.50;99.90;;;;;;5074133;28;20209;-59
2023/05/17 03:42:41;;;;;;;11.80;4.70;;;7.50;99.90;;;;;;5074272;28;20217;-58
2023/05/17 03:45:09;;;;;;;12.82;5.05;;;7.50;99.90;;;;;;5074472;28;20209;-57
2023/05/17 03:47:36;;;;;;;11.70;5.43;;;7.50;99.90;;;;;;5073248;28;20255;-59
2023/05/17 03:50:02;;;;;;;8.43;4.80;;;7.50;99.90;;;;;;5073609;28;20211;-59
2023/05/17 03:52:29;;;;;;;10.75;5.18;;;7.50;99.90;;;;;;5073873;28;20232;-59
2023/05/17 03:54:56;;;;;;;14.10;5.25;;;7.60;99.90;;;;;;5073764;28;20193;-58
2023/05/17 03:57:23;;;;;;;9.02;4.40;;;7.60;99.90;;;;;;5072964;28;20229;-58
2023/05/17 03:59:51;;;;;;;14.77;4.55;;;7.60;99.90;;;;;;5073543;28;20208;-59
2023/05/17 04:02:18;;;;;;;13.00;4.45;;;7.70;99.90;;;;;;5072820;28;20221;-59
2023/05/17 04:04:49;;;;;;;13.65;4.82;;;7.70;99.90;;;;;;5073215;28;20201;-58
2023/05/17 04:07:16;;;;;;;10.65;4.00;;;7.70;99.90;;;;;;5073113;28;20635;-59
2023/05/17 04:11:43;;;;;;;11.65;4.97;;;7.80;99.90;;;;;;5091713;27;20877;-58
2023/05/17 04:14:09;;;;;;;8.52;3.92;;;7.80;99.90;;;;;;5091070;28;20218;-60
2023/05/17 04:16:36;;;;;;;9.13;3.45;;;8.00;99.90;;;;;;5091702;28;20200;-58
2023/05/17 04:19:03;;;;;;;14.32;4.53;;;8.10;99.90;;;;;;5091879;28;20197;-57
2023/05/17 04:21:30;;;;;;;11.00;4.03;;;8.30;99.90;;;;;;5090664;28;20714;-58
2023/05/17 04:23:56;;;;;;;9.40;4.18;;;8.50;99.90;;;;;;5090209;28;20220;-58
2023/05/17 04:26:23;;;;;;;13.40;4.75;;;8.60;99.90;;;;;;5091005;28;20204;-57
2023/05/17 04:28:52;;;;;;;7.80;3.28;;;8.80;99.90;;;;;;5092077;28;20262;-58
2023/05/17 04:31:18;;;;;;;9.00;3.53;;;8.90;99.90;;;;;;5091399;28;20231;-57
2023/05/17 04:33:45;;;;;;;7.25;3.50;;;9.10;99.90;;;;;;5090617;28;20224;-58
2023/05/17 04:36:12;;;;;;;12.43;4.68;;;9.20;99.90;;;;;;5090785;28;20232;-58
2023/05/17 04:38:39;;;;;;;9.88;2.92;;;9.30;99.90;;;;;;5091758;28;20207;-59
2023/05/17 04:41:08;;;;;;;14.55;3.08;;;9.40;99.90;;;;;;5091091;28;20192;-58
2023/05/17 04:43:35;;;;;;;7.03;3.30;;;9.50;99.90;;;;;;5091860;28;20319;-59
2023/05/17 04:46:04;;;;;;;8.60;3.50;;;9.60;99.90;;;;;;5092855;28;20299;-59
2023/05/17 04:48:31;;;;;;;8.80;2.97;;;9.70;99.90;;;;;;5104241;28;20497;-58
2023/05/17 04:51:01;;;;;;;7.27;3.17;;;9.80;99.90;;;;;;5104310;28;20554;-58
2023/05/17 04:53:28;;;;;;;6.40;3.17;;;9.90;99.90;;;;;;5111310;22;20490;-62
2023/05/17 04:55:54;;;;;;;17.33;2.83;;;10.00;99.90;;;;;;5070344;28;20453;-62
2023/05/17 04:58:23;;;;;;;8.20;3.60;;;10.10;99.90;;;;;;5069036;28;20450;-63
2023/05/17 05:00:49;;;;;;;8.50;3.47;;;10.20;99.90;;;;;;5069220;28;20443;-62
2023/05/17 05:03:17;;;;;;;8.13;3.30;;;10.30;99.90;;;;;;5069286;28;20475;-63
2023/05/17 05:05:44;;;;;;;10.77;3.37;;;10.50;99.90;;;;;;5069729;28;20446;-62
2023/05/17 05:08:11;;;;;;;8.83;3.00;;;10.50;99.90;;;;;;5069098;28;20809;-62
2023/05/17 05:10:38;;;;;;;9.57;2.70;;;10.60;99.90;;;;;;5069248;28;20482;-62
2023/05/17 05:13:08;;;;;;;10.77;3.50;;;10.60;99.90;;;;;;5069219;28;20470;-63
2023/05/17 05:15:34;;;;;;;11.63;3.30;;;10.60;99.90;;;;;;5069835;28;20443;-63
2023/05/17 05:18:01;;;;;;;6.87;2.50;;;10.70;99.90;;;;;;5068998;28;20449;-61
2023/05/17 05:20:31;;;;;;;8.27;2.80;;;10.70;99.90;;;;;;5068741;28;20841;-61
2023/05/17 05:22:59;;;;;;;9.37;2.50;;;10.60;99.90;;;;;;5056491;28;20663;-62
2023/05/17 05:25:26;;;;;;;7.60;2.93;;;10.50;99.90;;;;;;5055993;28;20451;-62
2023/05/17 05:27:53;;;;;;;11.33;3.13;;;10.50;99.90;;;;;;5055789;28;20449;-62
2023/05/17 05:30:21;;;;;;;7.37;3.37;;;10.60;99.90;;;;;;5056453;28;20486;-62
2023/05/17 05:32:49;;;;;;;8.60;2.90;;;10.70;99.90;;;;;;5055929;28;20525;-62
2023/05/17 05:35:16;;;;;;;8.33;3.20;;;10.80;99.50;;;;;;5055727;28;20559;-62
2023/05/17 05:37:45;;;;;;;8.30;2.73;;;10.70;97.90;;;;;;5056385;28;20456;-61
2023/05/17 05:40:12;;;;;;;10.77;3.10;;;10.60;98.10;;;;;;5056334;28;20448;-62
2023/05/17 05:42:39;;;;;;;16.10;3.60;;;10.60;98.10;;;;;;5057477;28;20464;-62
2023/05/17 05:45:07;;;;;;;8.17;3.40;;;10.70;97.60;;;;;;5056644;28;20452;-62
2023/05/17 05:47:34;;;;;;;7.50;2.47;;;10.70;96.50;;;;;;5057854;28;20444;-62
2023/05/17 05:50:01;;;;;;;7.53;2.70;;;10.70;94.90;;;;;;5057860;28;20494;-64
2023/05/17 05:52:27;;;;;;;7.50;2.77;;;10.60;94.70;;;;;;5056677;28;20942;-61
2023/05/17 05:54:56;;;;;;;11.70;2.53;;;10.60;94.70;;;;;;5058177;28;20429;-63
2023/05/17 05:57:22;;;;;;;7.80;2.63;;;10.60;94.90;;;;;;5058331;28;20910;-63
2023/05/17 05:59:53;;;;;;;13.80;2.93;;;10.70;93.80;;;;;;5058248;28;20450;-63
2023/05/17 06:02:20;;;;;;;9.20;2.13;;;10.70;93.00;;;;;;5056800;28;20440;-63
2023/05/17 06:04:47;;;;;;;12.63;3.57;;;10.60;92.30;;;;;;5055760;28;20482;-64
2023/05/17 06:07:14;;;;;;;12.40;2.83;;;10.60;92.30;;;;;;5055075;28;20476;-62
2023/05/17 06:09:41;;;;;;;4.90;2.07;;;10.60;92.50;;;;;;5055404;28;20444;-62
2023/05/17 06:12:09;;;;;;;4.40;2.20;;;10.60;92.20;;;;;;5055372;28;20862;-62
2023/05/17 06:14:37;;;;;;;8.00;2.90;;;10.60;91.60;;;;;;5054999;28;20471;-62
2023/05/17 06:17:04;;;;;;;5.33;2.20;;;10.50;91.60;;;;;;5055850;28;20448;-63
2023/05/17 06:19:31;;;;;;;7.90;2.37;;;10.50;91.80;;;;;;5055218;28;20456;-61
2023/05/17 06:21:58;;;;;;;10.90;2.70;;;10.50;91.80;;;;;;5055338;28;20439;-62
2023/05/17 06:24:25;;;;;;;5.27;2.30;;;10.60;90.80;;;;;;5057248;28;20635;-62
2023/05/17 06:26:51;;;;;;;7.03;2.30;;;10.70;90.10;;;;;;5055920;28;20440;-62
2023/05/17 06:29:20;;;;;;;10.73;3.03;;;10.60;90.00;;;;;;5054945;28;20452;-62
2023/05/17 06:31:46;;;;;;;7.87;2.30;;;10.70;89.80;;;;;;5055350;28;20479;-63
2023/05/17 06:34:13;;;;;;;7.63;2.10;;;10.70;89.20;;;;;;5054282;28;20464;-62
2023/05/17 06:36:40;;;;;;;8.03;2.63;;;10.70;88.90;;;;;;5055189;28;20439;-63
2023/05/17 06:39:07;;;;;;;8.23;2.20;;;10.70;87.60;;;;;;5055255;28;20448;-64
2023/05/17 06:41:34;;;;;;;6.70;2.70;;;10.70;86.80;;;;;;5055410;28;20808;-63
2023/05/17 06:44:01;;;;;;;6.77;2.77;;;10.70;86.20;;;;;;5054829;28;20460;-63
2023/05/17 06:46:29;;;;;;;9.50;2.60;;;10.80;84.20;;;;;;5054426;28;20947;-63
2023/05/17 06:49:16;;;;;;;9.30;2.10;;;10.80;82.60;;;;;;5054337;28;20454;-62
2023/05/17 06:51:42;;;;;;;5.97;2.00;;;10.80;78.50;;;;;;5054221;28;20467;-63
2023/05/17 06:54:09;;;;;;;8.90;2.80;;;10.80;75.70;;;;;;5054000;28;20587;-62
2023/05/17 06:56:36;;;;;;;4.43;1.83;;;10.80;73.80;;;;;;5055606;28;20440;-62
2023/05/17 06:59:03;;;;;;;3.77;2.30;;;10.90;70.80;;;;;;5055887;28;20953;-63
2023/05/17 07:01:31;;;;;;;7.63;2.13;;;10.90;67.20;;;;;;5055399;28;20445;-63
2023/05/17 07:03:58;;;;;;;10.10;1.90;;;10.80;65.40;;;;;;5054450;28;20514;-62
2023/05/17 07:06:25;;;;;;;5.77;1.80;;;10.70;66.30;;;;;;5053861;28;20447;-61
2023/05/17 07:08:51;;;;;;;6.40;2.30;;;10.80;66.20;;;;;;5053826;28;20447;-63
2023/05/17 07:11:18;;;;;;;8.53;2.33;;;10.90;65.10;;;;;;5054100;28;20479;-62
2023/05/17 07:13:45;;;;;;;6.63;2.00;;;11.00;65.20;;;;;;5053712;28;21000;-62
2023/05/17 07:16:12;;;;;;;12.90;2.27;;;10.90;62.40;;;;;;5053730;28;20965;-63
2023/05/17 07:18:40;;;;;;;7.33;2.37;;;10.90;61.70;;;;;;5053870;28;20444;-61
2023/05/17 07:21:07;;;;;;;6.07;2.13;;;11.00;61.60;;;;;;5054357;28;20444;-62
2023/05/17 07:23:34;;;;;;;4.70;1.90;;;11.10;61.60;;;;;;5054464;28;20483;-61
2023/05/17 07:26:01;;;;;;;10.13;2.30;;;11.30;60.60;;;;;;5055643;28;20452;-62
2023/05/17 07:28:28;;;;;;;6.50;1.60;;;11.30;60.50;;;;;;5054436;28;20451;-62
2023/05/17 07:30:55;;;;;;;5.43;1.93;;;11.40;60.30;;;;;;5053428;28;20479;-62
2023/05/17 07:33:22;;;;;;;7.13;2.13;;;11.50;59.30;;;;;;5054287;28;20468;-62
2023/05/17 07:35:50;;;;;;;7.60;2.03;;;11.60;59.20;;;;;;5054199;28;20448;-64
2023/05/17 07:38:17;;;;;;;3.93;1.60;;;11.60;59.20;;;;;;5054368;28;20444;-63
2023/05/17 07:40:43;;;;;;;5.03;1.90;;;11.80;59.30;;;;;;5053282;28;20444;-62
2023/05/17 07:43:10;;;;;;;8.03;2.20;;;11.80;57.90;;;;;;5053226;28;20475;-63
2023/05/17 07:45:37;;;;;;;8.40;2.43;;;11.80;57.00;;;;;;5053315;28;20448;-62
2023/05/17 07:48:04;;;;;;;5.00;1.90;;;11.70;56.90;;;;;;5053483;28;20953;-63
2023/05/17 07:50:31;;;;;;;5.07;1.80;;;11.70;56.60;;;;;;5053378;28;20448;-62
2023/05/17 07:52:59;;;;;;;7.27;1.93;;;11.60;56.40;;;;;;5053217;28;20484;-62
2023/05/17 07:55:26;;;;;;;9.43;1.90;;;11.70;56.20;;;;;;5053339;28;20444;-63
2023/05/17 07:57:52;;;;;;;7.10;2.30;;;11.90;55.90;;;;;;5053935;28;20447;-61
2023/05/17 08:00:21;;;;;;;6.63;2.50;;;12.10;55.30;;;;;;5053175;28;20530;-63
2023/05/17 08:02:48;;;;;;;5.77;2.00;;;12.10;55.00;;;;;;5053136;28;20500;-63
2023/05/17 08:05:14;;;;;;;5.07;1.77;;;12.10;55.10;;;;;;5053240;28;20471;-62
2023/05/17 08:07:41;;;;;;;4.67;1.60;;;11.90;55.00;;;;;;5053267;28;20455;-63
2023/05/17 08:10:10;;;;;;;9.00;2.73;;;11.80;55.50;;;;;;5053124;28;20440;-64
2023/05/17 08:12:37;;;;;;;3.50;1.70;;;11.70;55.20;;;;;;5052713;28;20511;-61
2023/05/17 08:15:05;;;;;;;6.97;2.10;;;11.70;55.80;;;;;;5052751;28;20440;-62
2023/05/17 08:17:31;;;;;;;15.90;2.50;;;11.70;55.70;;;;;;5053075;28;20487;-63
2023/05/17 08:19:58;;;;;;;4.53;1.90;;;11.70;56.20;;;;;;5052942;28;20451;-62
2023/05/17 08:22:26;;;;;;;8.87;2.40;;;11.70;56.60;;;;;;5052403;28;20444;-61
2023/05/17 08:24:53;;;;;;;22.77;2.80;;;11.80;56.70;;;;;;5052588;28;20452;-62
2023/05/17 08:27:21;;;;;;;5.53;2.10;;;11.90;56.50;;;;;;5053076;28;20452;-62
2023/05/17 08:29:47;;;;;;;5.80;2.40;;;11.90;56.40;;;;;;5052531;28;20444;-63
2023/05/17 08:32:14;;;;;;;12.30;3.07;;;11.80;55.90;;;;;;5052660;28;20483;-62
2023/05/17 08:34:41;;;;;;;4.17;2.47;;;11.70;55.90;;;;;;5052643;28;20464;-62
2023/05/17 08:37:08;;;;;;;6.37;2.87;;;11.70;56.70;;;;;;5053186;28;20447;-63
2023/05/17 08:39:35;;;;;;;6.43;2.63;;;11.70;56.80;;;;;;5052569;28;20622;-63
2023/05/17 08:42:06;;;;;;;11.17;3.57;;;11.80;56.80;;;;;;5052679;28;20440;-62
2023/05/17 08:44:37;;;;;;;6.30;2.73;;;11.90;56.70;;;;;;5052818;28;20464;-62
2023/05/17 08:47:05;;;;;;;4.57;3.00;;;12.00;56.80;;;;;;5053087;28;20444;-63
2023/05/17 08:49:36;;;;;;;5.60;2.07;;;12.40;56.00;;;;;;5052980;28;20646;-62
2023/05/17 08:52:08;;;;;;;5.87;2.63;;;12.50;55.20;;;;;;5053238;28;21004;-63
2023/05/17 08:54:35;;;;;;;10.87;2.83;;;12.50;53.90;;;;;;5053181;28;20997;-62
2023/05/17 08:57:05;;;;;;;8.03;2.73;;;12.40;53.60;;;;;;5054708;28;20448;-62
2023/05/17 08:59:33;;;;;;;4.33;1.83;;;12.20;53.60;;;;;;5057013;28;20448;-62
2023/05/17 09:02:02;;;;;;;8.40;2.80;;;12.20;54.00;;;;;;5057348;28;20547;-62
2023/05/17 09:04:29;;;;;;;5.57;2.40;;;12.00;54.00;;;;;;5056917;28;20463;-62
2023/05/17 09:06:56;;;;;;;8.30;2.07;;;12.00;54.50;;;;;;5057481;28;20448;-63
2023/05/17 09:09:23;;;;;;;8.77;2.43;;;12.00;53.70;;;;;;5057489;28;20444;-62
2023/05/17 09:11:50;;;;;;;12.13;3.07;;;11.90;53.40;;;;;;5058057;28;20989;-62
2023/05/17 09:14:17;;;;;;;12.47;2.97;;;11.90;53.60;;;;;;5057646;28;20475;-63
2023/05/17 09:16:44;;;;;;;6.87;2.17;;;11.90;53.60;;;;;;5057512;28;20799;-64
2023/05/17 09:19:16;;;;;;;5.20;2.50;;;12.30;53.70;;;;;;5057424;28;20804;-64
2023/05/17 09:21:46;;;;;;;7.40;2.27;;;12.60;52.20;;;;;;5056905;28;20795;-64
2023/05/17 09:24:13;;;;;;;6.90;2.60;;;13.00;51.20;;;;;;5057111;28;20836;-61
2023/05/17 09:26:41;;;;;;;8.47;2.60;;;13.40;50.20;;;;;;5056316;28;20827;-62
2023/05/17 09:29:11;;;;;;;6.40;1.97;;;13.40;49.00;;;;;;5056735;28;20467;-62
2023/05/17 09:31:39;;;;;;;9.07;3.87;;;13.30;47.90;;;;;;5056517;28;20476;-63
2023/05/17 09:34:06;;;;;;;7.30;2.47;;;13.00;47.80;;;;;;5057305;28;20615;-63
2023/05/17 09:36:36;;;;;;;5.27;1.77;;;12.80;48.00;;;;;;5057669;28;20448;-63
2023/05/17 09:39:05;;;;;;;6.70;1.83;;;12.60;47.00;;;;;;5058387;28;20443;-63
2023/05/17 09:41:32;;;;;;;6.23;2.50;;;12.70;46.80;;;;;;5058143;28;20445;-63
2023/05/17 09:44:03;;;;;;;5.40;2.47;;;13.00;46.40;;;;;;5057781;28;20475;-63
2023/05/17 09:46:34;;;;;;;4.93;2.13;;;13.30;45.70;;;;;;5058037;28;20428;-62
2023/05/17 09:49:02;;;;;;;5.73;1.60;;;13.60;45.20;;;;;;5057914;28;20432;-62
2023/05/17 09:51:35;;;;;;;6.90;1.83;;;13.80;44.40;;;;;;5057596;28;20515;-64
2023/05/17 09:54:02;;;;;;;7.70;2.33;;;13.90;44.00;;;;;;5058181;28;20551;-65
2023/05/17 09:56:30;;;;;;;8.80;1.63;;;14.20;43.30;;;;;;5056640;28;20444;-62
2023/05/17 09:58:57;;;;;;;5.30;2.00;;;14.30;43.10;;;;;;5055358;28;20451;-62
2023/05/17 10:01:26;;;;;;;7.13;2.50;;;14.20;43.20;;;;;;5055210;28;20516;-64
2023/05/17 10:03:58;;;;;;;6.00;2.07;;;13.90;44.20;;;;;;5055104;28;20479;-64
2023/05/17 10:06:27;;;;;;;7.40;2.17;;;13.80;44.90;;;;;;5054798;28;21016;-64
2023/05/17 10:08:58;;;;;;;3.40;1.60;;;13.70;45.30;;;;;;5055110;28;20452;-62
2023/05/17 10:11:32;;;;;;;4.97;2.10;;;13.50;45.70;;;;;;5054270;28;20929;-63
2023/05/17 10:14:05;;;;;;;8.57;2.60;;;13.40;46.20;;;;;;5055009;28;21029;-63
2023/05/17 10:16:33;;;;;;;8.03;2.53;;;13.30;45.80;;;;;;5057966;28;20519;-64
2023/05/17 10:19:01;;;;;;;4.80;3.00;;;13.20;45.60;;;;;;5059335;28;20539;-64
2023/05/17 10:21:28;;;;;;;6.37;2.27;;;13.10;45.60;;;;;;5054884;28;20455;-62
2023/05/17 10:23:58;;;;;;;4.77;2.00;;;13.10;45.50;;;;;;5054495;28;20459;-63
2023/05/17 10:26:25;;;;;;;5.73;2.27;;;13.10;44.80;;;;;;5054965;28;20448;-63
2023/05/17 10:28:59;;;;;;;4.37;2.20;;;13.10;44.80;;;;;;5054420;28;20459;-63
2023/05/17 10:31:27;;;;;;;5.60;2.90;;;13.30;43.90;;;;;;5054728;28;20930;-64
2023/05/17 10:33:54;;;;;;;3.80;2.37;;;13.20;42.80;;;;;;5054527;28;20479;-63
2023/05/17 10:36:23;;;;;;;6.97;2.80;;;12.90;43.00;;;;;;5054585;28;20950;-64
2023/05/17 10:38:50;;;;;;;8.60;2.30;;;12.80;43.30;;;;;;5055895;28;20976;-63
2023/05/17 10:41:21;;;;;;;10.60;1.90;;;13.00;43.50;;;;;;5054071;28;20448;-60
2023/05/17 10:43:49;;;;;;;5.23;1.97;;;13.20;43.20;;;;;;5054527;28;20476;-60
2023/05/17 10:46:20;;;;;;;4.90;1.90;;;13.60;43.00;;;;;;5054668;28;20535;-61
2023/05/17 10:48:48;;;;;;;4.30;2.63;;;13.90;42.40;;;;;;5054913;28;20493;-61
2023/05/17 10:51:17;;;;;;;8.80;3.10;;;14.10;42.40;;;;;;5054745;28;20490;-61
2023/05/17 10:54:10;;;;;;;8.63;2.90;;;14.10;42.40;;;;;;5055696;28;20491;-63
2023/05/17 10:56:42;;;;;;;7.70;2.80;;;13.90;42.30;;;;;;5054507;28;20522;-63
2023/05/17 10:59:16;;;;;;;4.53;2.30;;;13.90;42.30;;;;;;5054525;28;20436;-64
2023/05/17 11:02:04;;;;;;;4.97;2.13;;;14.00;42.50;;;;;;5058092;28;20440;-59
2023/05/17 11:04:36;;;;;;;3.43;1.50;;;14.10;42.30;;;;;;5053818;28;20504;-62
2023/05/17 11:07:23;;;;;;;5.80;2.10;;;14.10;41.70;;;;;;5053687;28;20452;-62
2023/05/17 11:09:52;;;;;;;4.90;1.83;;;14.10;41.70;;;;;;5054396;28;20527;-61
2023/05/17 11:12:32;;;;;;;5.90;1.80;;;14.30;41.50;;;;;;5053521;28;20487;-63
2023/05/17 11:15:00;;;;;;;9.77;2.70;;;14.50;41.10;;;;;;5053949;28;20796;-60
2023/05/17 11:17:33;;;;;;;6.80;3.00;;;14.50;41.50;;;;;;5053896;28;20450;-62
2023/05/17 11:20:09;;;;;;;4.67;2.43;;;14.30;42.00;;;;;;5053225;28;20452;-60
2023/05/17 11:22:38;;;;;;;3.60;2.00;;;14.30;42.20;;;;;;5053698;28;20427;-61
2023/05/17 11:25:08;;;;;;;4.80;2.40;;;14.30;41.60;;;;;;5053199;28;20796;-61
2023/05/17 11:27:44;;;;;;;6.90;2.77;;;14.20;42.40;;;;;;5053898;28;20467;-62
2023/05/17 11:30:18;;;;;;;7.10;2.70;;;14.30;42.50;;;;;;5053135;28;20796;-62
2023/05/17 11:32:51;;;;;;;7.77;2.90;;;14.00;42.50;;;;;;5053373;28;20488;-62
2023/05/17 11:35:21;;;;;;;9.10;3.07;;;13.80;42.70;;;;;;5053796;28;21005;-61
2023/05/17 11:37:52;;;;;;;5.53;3.00;;;13.70;42.90;;;;;;5053152;28;20840;-60
2023/05/17 11:40:26;;;;;;;9.10;2.83;;;13.90;42.50;;;;;;5052966;28;20432;-60
2023/05/17 11:43:15;;;;;;;4.30;2.43;;;14.20;42.30;;;;;;5053394;28;20468;-62
2023/05/17 11:45:44;;;;;;;4.80;2.17;;;14.40;42.00;;;;;;5053208;28;20428;-61
2023/05/17 11:48:12;;;;;;;5.63;2.57;;;14.40;41.80;;;;;;5053250;28;20890;-61
2023/05/17 11:50:39;;;;;;;5.27;2.30;;;14.20;41.80;;;;;;5053272;28;20448;-61
2023/05/17 11:53:06;;;;;;;3.50;2.00;;;14.10;42.00;;;;;;5052795;28;20488;-61
2023/05/17 11:55:37;;;;;;;8.93;2.53;;;14.10;42.40;;;;;;5053563;28;20487;-63
2023/05/17 11:58:04;;;;;;;8.73;4.87;;;14.30;42.20;;;;;;5053419;28;20428;-61
2023/05/17 12:00:36;;;;;;;6.50;2.93;;;14.10;42.70;;;;;;5053224;28;20452;-60
2023/05/17 12:03:16;;;;;;;3.87;2.30;;;14.30;42.90;;;;;;5053450;28;20479;-60
2023/05/17 12:05:43;;;;;;;5.10;2.10;;;14.80;42.50;;;;;;5053383;28;20420;-61
2023/05/17 12:08:10;;;;;;;4.87;2.63;;;15.50;41.30;;;;;;5054068;28;20531;-60
2023/05/17 12:10:37;;;;;;;5.77;2.00;;;15.90;40.30;;;;;;5054121;28;20459;-61
2023/05/17 12:13:04;;;;;;;8.10;2.13;;;15.90;39.70;;;;;;5053779;28;21015;-61
2023/05/17 12:15:32;;;;;;;4.63;2.80;;;15.60;39.50;;;;;;5054261;28;20444;-60
2023/05/17 12:17:59;;;;;;;5.53;2.80;;;15.30;39.10;;;;;;5054531;28;20439;-60
2023/05/17 12:20:27;;;;;;;4.30;2.87;;;15.00;39.60;;;;;;5056083;28;20467;-61
2023/05/17 12:22:55;;;;;;;2.33;1.43;;;14.70;40.10;;;;;;5052701;28;20568;-61
2023/05/17 12:25:24;;;;;;;3.93;2.23;;;14.60;40.50;;;;;;5052793;28;20527;-60
2023/05/17 12:27:51;;;;;;;4.27;2.57;;;14.60;40.90;;;;;;5054098;28;20454;-61
2023/05/17 12:30:18;;;;;;;8.20;3.17;;;14.50;41.30;;;;;;5055175;28;20452;-61
2023/05/17 12:32:47;;;;;;;4.50;2.27;;;14.40;41.80;;;;;;5057090;28;20494;-60
2023/05/17 12:35:14;;;;;;;5.57;2.67;;;14.30;41.80;;;;;;5058707;28;20857;-59
2023/05/17 12:37:41;;;;;;;4.83;2.40;;;14.10;42.00;;;;;;5058732;28;20450;-61
2023/05/17 12:40:10;;;;;;;4.23;1.87;;;13.90;41.80;;;;;;5058468;28;20444;-60
2023/05/17 12:42:39;;;;;;;3.83;1.50;;;13.90;41.50;;;;;;5058832;28;20543;-60
2023/05/17 12:45:07;;;;;;;4.43;1.60;;;14.10;41.30;;;;;;5057827;28;20448;-60
2023/05/17 12:47:34;;;;;;;5.07;2.03;;;14.50;41.50;;;;;;5059078;28;20452;-61
2023/05/17 12:50:04;;;;;;;2.33;1.50;;;14.80;40.40;;;;;;5059054;28;20540;-61
2023/05/17 12:52:36;;;;;;;8.07;2.50;;;15.20;40.30;;;;;;5057339;28;20499;-60
2023/05/17 12:55:04;;;;;;;4.07;2.00;;;15.40;39.70;;;;;;5059541;28;20432;-65